sensor_id;sensor_type;location;lat;lon;timestamp;P1;durP1;ratioP1;P2;durP2;ratioP2
56680;SDS011;42558;52.388;13.390;2023-08-01T00:01:14;12.73;;;6.08;;
56680;SDS011;42558;52.388;13.390;2023-08-01T00:03:44;14.44;;;6.08;;
56680;SDS011;42558;52.388;13.390;2023-08-01T00:06:14;18.43;;;6.46;;
56680;SDS011;42558;52.388;13.390;2023-08-01T00:08:44;12.92;;;6.46;;
56680;SDS011;42558;52.388;13.390;2023-08-01T00:11:14;13.30;;;5.51;;
56680;SDS011;42558;52.388;13.390;2023-08-01T00:13:45;15.77;;;6.27;;
56680;SDS011;42558;52.388;13.390;2023-08-01T00:16:15;11.02;;;5.70;;
56680;SDS011;42558;52.388;13.390;2023-08-01T00:18:45;10.07;;;5.89;;
56680;SDS011;42558;52.388;13.390;2023-08-01T00:21:15;8.55;;;5.51;;
56680;SDS011;42558;52.388;13.390;2023-08-01T00:23:45;16.34;;;7.22;;
56680;SDS011;42558;52.388;13.390;2023-08-01T00:26:15;11.40;;;5.70;;
56680;SDS011;42558;52.388;13.390;2023-08-01T00:28:45;10.83;;;5.32;;
56680;SDS011;42558;52.388;13.390;2023-08-01T00:31:15;11.78;;;4.75;;
56680;SDS011;42558;52.388;13.390;2023-08-01T00:33:45;11.02;;;5.13;;
56680;SDS011;42558;52.388;13.390;2023-08-01T00:36:15;11.21;;;5.70;;
56680;SDS011;42558;52.388;13.390;2023-08-01T00:38:45;8.36;;;4.18;;
56680;SDS011;42558;52.388;13.390;2023-08-01T00:41:15;8.17;;;4.94;;
56680;SDS011;42558;52.388;13.390;2023-08-01T00:43:45;9.88;;;5.13;;
56680;SDS011;42558;52.388;13.390;2023-08-01T00:46:15;10.64;;;4.75;;
56680;SDS011;42558;52.388;13.390;2023-08-01T00:48:45;10.45;;;5.13;;
56680;SDS011;42558;52.388;13.390;2023-08-01T00:51:16;9.50;;;5.51;;
56680;SDS011;42558;52.388;13.390;2023-08-01T00:53:48;11.78;;;5.89;;
56680;SDS011;42558;52.388;13.390;2023-08-01T00:56:18;12.73;;;5.51;;
56680;SDS011;42558;52.388;13.390;2023-08-01T00:58:48;12.54;;;5.51;;
56680;SDS011;42558;52.388;13.390;2023-08-01T01:01:19;10.45;;;6.08;;
56680;SDS011;42558;52.388;13.390;2023-08-01T01:03:50;11.02;;;5.51;;
56680;SDS011;42558;52.388;13.390;2023-08-01T01:06:41;9.69;;;5.70;;
56680;SDS011;42558;52.388;13.390;2023-08-01T01:09:18;11.97;;;5.51;;
56680;SDS011;42558;52.388;13.390;2023-08-01T01:11:49;8.74;;;5.32;;
56680;SDS011;42558;52.388;13.390;2023-08-01T01:14:19;9.69;;;5.32;;
56680;SDS011;42558;52.388;13.390;2023-08-01T01:16:48;10.83;;;5.51;;
56680;SDS011;42558;52.388;13.390;2023-08-01T01:19:17;12.54;;;6.46;;
56680;SDS011;42558;52.388;13.390;2023-08-01T01:21:46;11.78;;;6.08;;
56680;SDS011;42558;52.388;13.390;2023-08-01T01:24:18;13.87;;;6.27;;
56680;SDS011;42558;52.388;13.390;2023-08-01T01:26:48;13.30;;;6.08;;
56680;SDS011;42558;52.388;13.390;2023-08-01T01:29:21;10.45;;;5.70;;
56680;SDS011;42558;52.388;13.390;2023-08-01T01:31:53;12.16;;;5.51;;
56680;SDS011;42558;52.388;13.390;2023-08-01T01:34:24;12.16;;;5.89;;
56680;SDS011;42558;52.388;13.390;2023-08-01T01:36:56;13.49;;;5.70;;
56680;SDS011;42558;52.388;13.390;2023-08-01T01:39:25;13.68;;;5.89;;
56680;SDS011;42558;52.388;13.390;2023-08-01T01:41:53;12.92;;;6.65;;
56680;SDS011;42558;52.388;13.390;2023-08-01T01:44:22;15.39;;;6.46;;
56680;SDS011;42558;52.388;13.390;2023-08-01T01:46:50;12.35;;;6.08;;
56680;SDS011;42558;52.388;13.390;2023-08-01T01:49:19;11.40;;;6.65;;
56680;SDS011;42558;52.388;13.390;2023-08-01T01:51:47;14.82;;;7.60;;
56680;SDS011;42558;52.388;13.390;2023-08-01T01:54:16;12.73;;;7.41;;
56680;SDS011;42558;52.388;13.390;2023-08-01T01:56:44;19.76;;;7.03;;
56680;SDS011;42558;52.388;13.390;2023-08-01T01:59:12;13.68;;;7.60;;
56680;SDS011;42558;52.388;13.390;2023-08-01T02:01:43;13.49;;;7.41;;
56680;SDS011;42558;52.388;13.390;2023-08-01T02:04:11;13.11;;;6.84;;
56680;SDS011;42558;52.388;13.390;2023-08-01T02:06:39;16.15;;;6.46;;
56680;SDS011;42558;52.388;13.390;2023-08-01T02:09:08;12.54;;;6.84;;
56680;SDS011;42558;52.388;13.390;2023-08-01T02:11:38;12.16;;;7.60;;
56680;SDS011;42558;52.388;13.390;2023-08-01T02:14:07;12.35;;;7.22;;
56680;SDS011;42558;52.388;13.390;2023-08-01T02:16:35;12.35;;;7.41;;
56680;SDS011;42558;52.388;13.390;2023-08-01T02:19:04;13.68;;;7.03;;
56680;SDS011;42558;52.388;13.390;2023-08-01T02:21:32;13.87;;;6.84;;
56680;SDS011;42558;52.388;13.390;2023-08-01T02:24:01;13.87;;;7.41;;
56680;SDS011;42558;52.388;13.390;2023-08-01T02:26:29;14.25;;;7.60;;
56680;SDS011;42558;52.388;13.390;2023-08-01T02:28:58;13.68;;;7.98;;
56680;SDS011;42558;52.388;13.390;2023-08-01T02:31:26;11.59;;;7.22;;
56680;SDS011;42558;52.388;13.390;2023-08-01T02:33:55;13.68;;;7.60;;
56680;SDS011;42558;52.388;13.390;2023-08-01T02:36:23;11.02;;;6.46;;
56680;SDS011;42558;52.388;13.390;2023-08-01T02:38:51;12.54;;;7.22;;
56680;SDS011;42558;52.388;13.390;2023-08-01T02:41:20;13.11;;;7.22;;
56680;SDS011;42558;52.388;13.390;2023-08-01T02:43:48;13.30;;;6.84;;
56680;SDS011;42558;52.388;13.390;2023-08-01T02:46:17;16.15;;;6.84;;
56680;SDS011;42558;52.388;13.390;2023-08-01T02:48:45;15.20;;;7.03;;
56680;SDS011;42558;52.388;13.390;2023-08-01T02:51:13;14.44;;;7.79;;
56680;SDS011;42558;52.388;13.390;2023-08-01T02:53:42;12.35;;;6.27;;
56680;SDS011;42558;52.388;13.390;2023-08-01T02:56:12;12.73;;;7.41;;
56680;SDS011;42558;52.388;13.390;2023-08-01T02:58:40;15.39;;;7.79;;
56680;SDS011;42558;52.388;13.390;2023-08-01T03:01:09;15.39;;;7.79;;
56680;SDS011;42558;52.388;13.390;2023-08-01T03:03:37;12.16;;;7.03;;
56680;SDS011;42558;52.388;13.390;2023-08-01T03:06:08;13.49;;;7.60;;
56680;SDS011;42558;52.388;13.390;2023-08-01T03:08:36;15.01;;;6.84;;
56680;SDS011;42558;52.388;13.390;2023-08-01T03:11:04;15.20;;;7.03;;
56680;SDS011;42558;52.388;13.390;2023-08-01T03:13:33;13.30;;;7.79;;
56680;SDS011;42558;52.388;13.390;2023-08-01T03:16:01;15.01;;;6.46;;
56680;SDS011;42558;52.388;13.390;2023-08-01T03:18:33;15.20;;;7.03;;
56680;SDS011;42558;52.388;13.390;2023-08-01T03:21:01;15.39;;;7.60;;
56680;SDS011;42558;52.388;13.390;2023-08-01T03:23:33;13.87;;;7.22;;
56680;SDS011;42558;52.388;13.390;2023-08-01T03:26:03;12.35;;;7.03;;
56680;SDS011;42558;52.388;13.390;2023-08-01T03:28:33;14.63;;;6.65;;
56680;SDS011;42558;52.388;13.390;2023-08-01T03:31:03;13.30;;;7.03;;
56680;SDS011;42558;52.388;13.390;2023-08-01T03:33:34;11.02;;;7.22;;
56680;SDS011;42558;52.388;13.390;2023-08-01T03:36:04;12.35;;;6.65;;
56680;SDS011;42558;52.388;13.390;2023-08-01T03:38:34;12.54;;;6.46;;
56680;SDS011;42558;52.388;13.390;2023-08-01T03:41:04;15.77;;;6.65;;
56680;SDS011;42558;52.388;13.390;2023-08-01T03:43:34;10.83;;;6.65;;
56680;SDS011;42558;52.388;13.390;2023-08-01T03:46:04;11.40;;;6.84;;
56680;SDS011;42558;52.388;13.390;2023-08-01T03:48:34;14.82;;;7.03;;
56680;SDS011;42558;52.388;13.390;2023-08-01T03:51:04;15.01;;;7.22;;
56680;SDS011;42558;52.388;13.390;2023-08-01T03:53:34;11.59;;;6.65;;
56680;SDS011;42558;52.388;13.390;2023-08-01T03:56:04;13.68;;;6.46;;
56680;SDS011;42558;52.388;13.390;2023-08-01T03:58:34;12.35;;;6.46;;
56680;SDS011;42558;52.388;13.390;2023-08-01T04:01:04;15.77;;;7.03;;
56680;SDS011;42558;52.388;13.390;2023-08-01T04:03:36;13.11;;;6.46;;
56680;SDS011;42558;52.388;13.390;2023-08-01T04:06:06;11.21;;;5.89;;
56680;SDS011;42558;52.388;13.390;2023-08-01T04:08:36;10.26;;;5.89;;
56680;SDS011;42558;52.388;13.390;2023-08-01T04:11:06;12.73;;;6.65;;
56680;SDS011;42558;52.388;13.390;2023-08-01T04:13:51;13.68;;;6.27;;
56680;SDS011;42558;52.388;13.390;2023-08-01T04:16:19;12.73;;;7.03;;
56680;SDS011;42558;52.388;13.390;2023-08-01T04:18:49;12.35;;;6.08;;
56680;SDS011;42558;52.388;13.390;2023-08-01T04:21:19;10.64;;;6.65;;
56680;SDS011;42558;52.388;13.390;2023-08-01T04:23:49;11.40;;;6.65;;
56680;SDS011;42558;52.388;13.390;2023-08-01T04:26:18;16.53;;;6.84;;
56680;SDS011;42558;52.388;13.390;2023-08-01T04:28:47;12.35;;;6.08;;
56680;SDS011;42558;52.388;13.390;2023-08-01T04:31:15;13.30;;;5.89;;
56680;SDS011;42558;52.388;13.390;2023-08-01T04:33:43;11.78;;;6.27;;
56680;SDS011;42558;52.388;13.390;2023-08-01T04:36:12;12.92;;;6.65;;
56680;SDS011;42558;52.388;13.390;2023-08-01T04:38:40;12.92;;;6.65;;
56680;SDS011;42558;52.388;13.390;2023-08-01T04:41:09;11.59;;;6.27;;
56680;SDS011;42558;52.388;13.390;2023-08-01T04:43:37;12.92;;;6.08;;
56680;SDS011;42558;52.388;13.390;2023-08-01T04:46:06;14.82;;;6.46;;
56680;SDS011;42558;52.388;13.390;2023-08-01T04:48:35;12.35;;;6.46;;
56680;SDS011;42558;52.388;13.390;2023-08-01T04:51:05;13.11;;;6.08;;
56680;SDS011;42558;52.388;13.390;2023-08-01T04:53:35;12.16;;;6.46;;
56680;SDS011;42558;52.388;13.390;2023-08-01T04:56:05;11.40;;;6.27;;
56680;SDS011;42558;52.388;13.390;2023-08-01T04:58:35;10.83;;;5.51;;
56680;SDS011;42558;52.388;13.390;2023-08-01T05:01:05;10.83;;;5.51;;
56680;SDS011;42558;52.388;13.390;2023-08-01T05:03:36;11.40;;;6.08;;
56680;SDS011;42558;52.388;13.390;2023-08-01T05:06:05;11.97;;;6.27;;
56680;SDS011;42558;52.388;13.390;2023-08-01T05:08:35;10.45;;;5.89;;
56680;SDS011;42558;52.388;13.390;2023-08-01T05:11:05;12.16;;;5.32;;
56680;SDS011;42558;52.388;13.390;2023-08-01T05:13:35;12.92;;;6.27;;
56680;SDS011;42558;52.388;13.390;2023-08-01T05:16:05;12.16;;;5.51;;
56680;SDS011;42558;52.388;13.390;2023-08-01T05:18:35;12.35;;;6.08;;
56680;SDS011;42558;52.388;13.390;2023-08-01T05:21:05;13.87;;;5.70;;
56680;SDS011;42558;52.388;13.390;2023-08-01T05:23:35;15.39;;;5.89;;
56680;SDS011;42558;52.388;13.390;2023-08-01T05:26:05;12.92;;;6.27;;
56680;SDS011;42558;52.388;13.390;2023-08-01T05:28:35;10.26;;;5.32;;
56680;SDS011;42558;52.388;13.390;2023-08-01T05:31:05;15.58;;;5.70;;
56680;SDS011;42558;52.388;13.390;2023-08-01T05:33:35;13.68;;;6.08;;
56680;SDS011;42558;52.388;13.390;2023-08-01T05:36:05;12.92;;;5.89;;
56680;SDS011;42558;52.388;13.390;2023-08-01T05:38:35;15.77;;;5.89;;
56680;SDS011;42558;52.388;13.390;2023-08-01T05:41:05;11.02;;;5.70;;
56680;SDS011;42558;52.388;13.390;2023-08-01T05:43:36;11.02;;;6.08;;
56680;SDS011;42558;52.388;13.390;2023-08-01T05:46:06;11.40;;;5.89;;
56680;SDS011;42558;52.388;13.390;2023-08-01T05:48:36;12.73;;;5.32;;
56680;SDS011;42558;52.388;13.390;2023-08-01T05:51:06;10.07;;;6.08;;
56680;SDS011;42558;52.388;13.390;2023-08-01T05:53:36;10.83;;;6.08;;
56680;SDS011;42558;52.388;13.390;2023-08-01T05:56:07;9.50;;;5.13;;
56680;SDS011;42558;52.388;13.390;2023-08-01T05:58:37;15.01;;;5.70;;
56680;SDS011;42558;52.388;13.390;2023-08-01T06:01:07;11.21;;;4.94;;
56680;SDS011;42558;52.388;13.390;2023-08-01T06:03:38;12.73;;;5.32;;
56680;SDS011;42558;52.388;13.390;2023-08-01T06:06:08;11.40;;;4.75;;
56680;SDS011;42558;52.388;13.390;2023-08-01T06:08:38;9.31;;;4.37;;
56680;SDS011;42558;52.388;13.390;2023-08-01T06:11:08;10.45;;;5.13;;
56680;SDS011;42558;52.388;13.390;2023-08-01T06:13:38;9.31;;;4.94;;
56680;SDS011;42558;52.388;13.390;2023-08-01T06:16:07;8.55;;;4.75;;
56680;SDS011;42558;52.388;13.390;2023-08-01T06:18:35;11.40;;;5.13;;
56680;SDS011;42558;52.388;13.390;2023-08-01T06:21:04;9.12;;;4.75;;
56680;SDS011;42558;52.388;13.390;2023-08-01T06:23:33;8.74;;;5.13;;
56680;SDS011;42558;52.388;13.390;2023-08-01T06:26:03;11.59;;;4.94;;
56680;SDS011;42558;52.388;13.390;2023-08-01T06:28:32;8.93;;;4.94;;
56680;SDS011;42558;52.388;13.390;2023-08-01T06:31:02;11.78;;;5.89;;
56680;SDS011;42558;52.388;13.390;2023-08-01T06:33:32;11.21;;;5.70;;
56680;SDS011;42558;52.388;13.390;2023-08-01T06:36:02;9.12;;;4.56;;
56680;SDS011;42558;52.388;13.390;2023-08-01T06:38:33;9.69;;;4.94;;
56680;SDS011;42558;52.388;13.390;2023-08-01T06:41:03;10.64;;;5.51;;
56680;SDS011;42558;52.388;13.390;2023-08-01T06:43:31;10.26;;;4.94;;
56680;SDS011;42558;52.388;13.390;2023-08-01T06:46:01;10.26;;;5.32;;
56680;SDS011;42558;52.388;13.390;2023-08-01T06:48:31;8.93;;;4.56;;
56680;SDS011;42558;52.388;13.390;2023-08-01T06:51:04;9.88;;;4.75;;
56680;SDS011;42558;52.388;13.390;2023-08-01T06:53:32;9.50;;;4.94;;
56680;SDS011;42558;52.388;13.390;2023-08-01T06:56:02;11.40;;;4.56;;
56680;SDS011;42558;52.388;13.390;2023-08-01T06:58:30;9.69;;;5.13;;
56680;SDS011;42558;52.388;13.390;2023-08-01T07:01:00;10.45;;;5.32;;
56680;SDS011;42558;52.388;13.390;2023-08-01T07:03:29;11.40;;;5.32;;
56680;SDS011;42558;52.388;13.390;2023-08-01T07:05:59;9.69;;;4.75;;
56680;SDS011;42558;52.388;13.390;2023-08-01T07:08:27;8.55;;;4.56;;
56680;SDS011;42558;52.388;13.390;2023-08-01T07:10:58;9.50;;;4.75;;
56680;SDS011;42558;52.388;13.390;2023-08-01T07:13:29;9.12;;;5.13;;
56680;SDS011;42558;52.388;13.390;2023-08-01T07:15:58;9.12;;;5.32;;
56680;SDS011;42558;52.388;13.390;2023-08-01T07:18:26;9.50;;;4.56;;
56680;SDS011;42558;52.388;13.390;2023-08-01T07:21:01;10.07;;;4.37;;
56680;SDS011;42558;52.388;13.390;2023-08-01T07:23:34;10.07;;;4.75;;
56680;SDS011;42558;52.388;13.390;2023-08-01T07:26:04;8.74;;;4.37;;
56680;SDS011;42558;52.388;13.390;2023-08-01T07:28:32;9.50;;;4.75;;
56680;SDS011;42558;52.388;13.390;2023-08-01T07:31:03;9.88;;;4.56;;
56680;SDS011;42558;52.388;13.390;2023-08-01T07:33:33;8.93;;;4.18;;
56680;SDS011;42558;52.388;13.390;2023-08-01T07:36:03;9.69;;;4.18;;
56680;SDS011;42558;52.388;13.390;2023-08-01T07:38:31;8.55;;;4.37;;
56680;SDS011;42558;52.388;13.390;2023-08-01T07:41:04;8.36;;;4.18;;
56680;SDS011;42558;52.388;13.390;2023-08-01T07:43:36;11.21;;;3.80;;
56680;SDS011;42558;52.388;13.390;2023-08-01T07:46:06;9.69;;;4.75;;
56680;SDS011;42558;52.388;13.390;2023-08-01T07:48:38;8.36;;;3.99;;
56680;SDS011;42558;52.388;13.390;2023-08-01T07:51:08;8.74;;;4.37;;
56680;SDS011;42558;52.388;13.390;2023-08-01T07:53:41;9.12;;;4.37;;
56680;SDS011;42558;52.388;13.390;2023-08-01T07:56:11;7.60;;;4.18;;
56680;SDS011;42558;52.388;13.390;2023-08-01T07:58:41;6.84;;;3.61;;
56680;SDS011;42558;52.388;13.390;2023-08-01T08:01:11;8.74;;;4.37;;
56680;SDS011;42558;52.388;13.390;2023-08-01T08:03:41;7.22;;;3.80;;
56680;SDS011;42558;52.388;13.390;2023-08-01T08:06:11;7.22;;;3.80;;
56680;SDS011;42558;52.388;13.390;2023-08-01T08:08:42;7.03;;;3.61;;
56680;SDS011;42558;52.388;13.390;2023-08-01T08:11:10;7.79;;;4.37;;
56680;SDS011;42558;52.388;13.390;2023-08-01T08:13:39;8.74;;;3.61;;
56680;SDS011;42558;52.388;13.390;2023-08-01T08:16:07;8.55;;;4.18;;
56680;SDS011;42558;52.388;13.390;2023-08-01T08:18:36;8.55;;;4.37;;
56680;SDS011;42558;52.388;13.390;2023-08-01T08:21:06;7.22;;;4.18;;
56680;SDS011;42558;52.388;13.390;2023-08-01T08:23:34;7.41;;;3.80;;
56680;SDS011;42558;52.388;13.390;2023-08-01T08:26:03;7.22;;;3.80;;
56680;SDS011;42558;52.388;13.390;2023-08-01T08:28:33;6.27;;;3.23;;
56680;SDS011;42558;52.388;13.390;2023-08-01T08:31:01;6.65;;;3.61;;
56680;SDS011;42558;52.388;13.390;2023-08-01T08:33:33;8.17;;;3.61;;
56680;SDS011;42558;52.388;13.390;2023-08-01T08:36:03;8.36;;;3.61;;
56680;SDS011;42558;52.388;13.390;2023-08-01T08:38:33;7.22;;;3.61;;
56680;SDS011;42558;52.388;13.390;2023-08-01T08:41:13;8.17;;;3.23;;
56680;SDS011;42558;52.388;13.390;2023-08-01T08:43:48;7.22;;;2.85;;
56680;SDS011;42558;52.388;13.390;2023-08-01T08:46:19;7.60;;;2.85;;
56680;SDS011;42558;52.388;13.390;2023-08-01T08:48:50;6.08;;;2.47;;
56680;SDS011;42558;52.388;13.390;2023-08-01T08:51:19;6.65;;;3.23;;
56680;SDS011;42558;52.388;13.390;2023-08-01T08:53:48;5.51;;;2.47;;
56680;SDS011;42558;52.388;13.390;2023-08-01T08:56:23;5.32;;;2.47;;
56680;SDS011;42558;52.388;13.390;2023-08-01T08:58:51;6.27;;;3.23;;
56680;SDS011;42558;52.388;13.390;2023-08-01T09:01:23;7.41;;;2.47;;
56680;SDS011;42558;52.388;13.390;2023-08-01T09:03:53;6.46;;;2.28;;
56680;SDS011;42558;52.388;13.390;2023-08-01T09:06:30;5.89;;;2.28;;
56680;SDS011;42558;52.388;13.390;2023-08-01T09:09:12;4.75;;;2.09;;
56680;SDS011;42558;52.388;13.390;2023-08-01T09:14:18;6.84;;;2.28;;
56680;SDS011;42558;52.388;13.390;2023-08-01T09:16:49;5.13;;;2.09;;
56680;SDS011;42558;52.388;13.390;2023-08-01T09:19:21;4.75;;;1.90;;
56680;SDS011;42558;52.388;13.390;2023-08-01T09:21:54;5.32;;;1.90;;
56680;SDS011;42558;52.388;13.390;2023-08-01T09:24:25;5.51;;;1.71;;
56680;SDS011;42558;52.388;13.390;2023-08-01T09:27:02;4.37;;;1.52;;
56680;SDS011;42558;52.388;13.390;2023-08-01T09:29:38;4.94;;;1.71;;
56680;SDS011;42558;52.388;13.390;2023-08-01T09:32:13;4.94;;;1.52;;
56680;SDS011;42558;52.388;13.390;2023-08-01T09:34:43;4.94;;;1.71;;
56680;SDS011;42558;52.388;13.390;2023-08-01T09:37:13;5.89;;;1.52;;
56680;SDS011;42558;52.388;13.390;2023-08-01T09:39:42;5.70;;;1.71;;
56680;SDS011;42558;52.388;13.390;2023-08-01T09:42:14;4.75;;;1.71;;
56680;SDS011;42558;52.388;13.390;2023-08-01T09:44:45;5.89;;;1.71;;
56680;SDS011;42558;52.388;13.390;2023-08-01T09:47:16;4.94;;;1.90;;
56680;SDS011;42558;52.388;13.390;2023-08-01T09:49:49;6.27;;;2.09;;
56680;SDS011;42558;52.388;13.390;2023-08-01T09:52:27;4.94;;;1.71;;
56680;SDS011;42558;52.388;13.390;2023-08-01T09:54:58;4.94;;;1.90;;
56680;SDS011;42558;52.388;13.390;2023-08-01T09:57:30;4.75;;;1.71;;
56680;SDS011;42558;52.388;13.390;2023-08-01T10:00:01;5.51;;;1.90;;
56680;SDS011;42558;52.388;13.390;2023-08-01T10:02:32;5.89;;;2.09;;
56680;SDS011;42558;52.388;13.390;2023-08-01T10:05:03;5.70;;;2.09;;
56680;SDS011;42558;52.388;13.390;2023-08-01T10:07:36;6.46;;;2.09;;
56680;SDS011;42558;52.388;13.390;2023-08-01T10:10:11;6.27;;;2.09;;
56680;SDS011;42558;52.388;13.390;2023-08-01T10:12:45;4.94;;;1.90;;
56680;SDS011;42558;52.388;13.390;2023-08-01T10:15:16;4.56;;;1.90;;
56680;SDS011;42558;52.388;13.390;2023-08-01T10:17:44;6.27;;;1.90;;
56680;SDS011;42558;52.388;13.390;2023-08-01T10:20:14;5.13;;;2.09;;
56680;SDS011;42558;52.388;13.390;2023-08-01T10:22:46;5.70;;;1.90;;
56680;SDS011;42558;52.388;13.390;2023-08-01T10:25:20;5.70;;;1.90;;
56680;SDS011;42558;52.388;13.390;2023-08-01T10:30:30;5.13;;;1.71;;
56680;SDS011;42558;52.388;13.390;2023-08-01T10:33:00;6.08;;;2.09;;
56680;SDS011;42558;52.388;13.390;2023-08-01T10:35:38;4.56;;;1.52;;
56680;SDS011;42558;52.388;13.390;2023-08-01T10:38:11;5.51;;;1.71;;
56680;SDS011;42558;52.388;13.390;2023-08-01T10:40:42;5.13;;;1.52;;
56680;SDS011;42558;52.388;13.390;2023-08-01T10:43:22;4.94;;;1.90;;
56680;SDS011;42558;52.388;13.390;2023-08-01T10:46:05;4.18;;;1.52;;
56680;SDS011;42558;52.388;13.390;2023-08-01T10:48:33;9.31;;;2.09;;
56680;SDS011;42558;52.388;13.390;2023-08-01T10:51:02;4.37;;;1.33;;
56680;SDS011;42558;52.388;13.390;2023-08-01T10:53:39;4.75;;;1.14;;
56680;SDS011;42558;52.388;13.390;2023-08-01T10:56:19;4.37;;;1.33;;
56680;SDS011;42558;52.388;13.390;2023-08-01T10:58:50;5.89;;;2.09;;
56680;SDS011;42558;52.388;13.390;2023-08-01T11:01:18;4.94;;;1.14;;
56680;SDS011;42558;52.388;13.390;2023-08-01T11:03:47;5.70;;;1.90;;
56680;SDS011;42558;52.388;13.390;2023-08-01T11:06:14;6.84;;;1.71;;
56680;SDS011;42558;52.388;13.390;2023-08-01T11:08:42;6.27;;;1.52;;
56680;SDS011;42558;52.388;13.390;2023-08-01T11:11:13;4.75;;;1.33;;
56680;SDS011;42558;52.388;13.390;2023-08-01T11:13:50;6.08;;;1.14;;
56680;SDS011;42558;52.388;13.390;2023-08-01T11:16:22;4.56;;;1.52;;
56680;SDS011;42558;52.388;13.390;2023-08-01T11:18:52;4.18;;;1.14;;
56680;SDS011;42558;52.388;13.390;2023-08-01T11:21:26;5.13;;;1.52;;
56680;SDS011;42558;52.388;13.390;2023-08-01T11:23:57;5.70;;;1.90;;
56680;SDS011;42558;52.388;13.390;2023-08-01T11:26:27;4.56;;;1.14;;
56680;SDS011;42558;52.388;13.390;2023-08-01T11:29:01;5.51;;;1.90;;
56680;SDS011;42558;52.388;13.390;2023-08-01T11:31:34;4.94;;;1.90;;
56680;SDS011;42558;52.388;13.390;2023-08-01T11:34:04;6.84;;;2.85;;
56680;SDS011;42558;52.388;13.390;2023-08-01T11:36:35;8.17;;;3.23;;
56680;SDS011;42558;52.388;13.390;2023-08-01T11:39:05;8.17;;;3.42;;
56680;SDS011;42558;52.388;13.390;2023-08-01T11:41:35;7.22;;;3.04;;
56680;SDS011;42558;52.388;13.390;2023-08-01T11:44:05;10.26;;;3.61;;
56680;SDS011;42558;52.388;13.390;2023-08-01T11:46:35;7.98;;;3.61;;
56680;SDS011;42558;52.388;13.390;2023-08-01T11:49:08;11.21;;;4.37;;
56680;SDS011;42558;52.388;13.390;2023-08-01T11:51:43;10.07;;;3.42;;
56680;SDS011;42558;52.388;13.390;2023-08-01T11:54:13;9.50;;;3.61;;
56680;SDS011;42558;52.388;13.390;2023-08-01T11:56:43;9.88;;;4.18;;
56680;SDS011;42558;52.388;13.390;2023-08-01T11:59:16;10.26;;;4.56;;
56680;SDS011;42558;52.388;13.390;2023-08-01T12:01:46;9.69;;;4.56;;
56680;SDS011;42558;52.388;13.390;2023-08-01T12:04:27;11.40;;;4.56;;
56680;SDS011;42558;52.388;13.390;2023-08-01T12:06:57;8.93;;;4.37;;
56680;SDS011;42558;52.388;13.390;2023-08-01T12:09:31;9.50;;;5.32;;
56680;SDS011;42558;52.388;13.390;2023-08-01T12:12:01;10.83;;;4.75;;
56680;SDS011;42558;52.388;13.390;2023-08-01T12:14:31;12.92;;;5.32;;
56680;SDS011;42558;52.388;13.390;2023-08-01T12:17:01;11.40;;;5.32;;
56680;SDS011;42558;52.388;13.390;2023-08-01T12:19:31;9.31;;;5.13;;
56680;SDS011;42558;52.388;13.390;2023-08-01T12:22:02;8.74;;;4.94;;
56680;SDS011;42558;52.388;13.390;2023-08-01T12:24:32;8.36;;;4.37;;
56680;SDS011;42558;52.388;13.390;2023-08-01T12:27:06;9.69;;;4.37;;
56680;SDS011;42558;52.388;13.390;2023-08-01T12:29:35;9.12;;;4.94;;
56680;SDS011;42558;52.388;13.390;2023-08-01T12:32:06;10.45;;;4.56;;
56680;SDS011;42558;52.388;13.390;2023-08-01T12:34:36;10.64;;;4.18;;
56680;SDS011;42558;52.388;13.390;2023-08-01T12:37:06;7.79;;;3.99;;
56680;SDS011;42558;52.388;13.390;2023-08-01T12:39:35;8.17;;;4.75;;
56680;SDS011;42558;52.388;13.390;2023-08-01T12:42:06;9.31;;;5.13;;
56680;SDS011;42558;52.388;13.390;2023-08-01T12:44:36;9.69;;;5.13;;
56680;SDS011;42558;52.388;13.390;2023-08-01T12:47:06;8.74;;;4.75;;
56680;SDS011;42558;52.388;13.390;2023-08-01T12:49:37;10.07;;;5.51;;
56680;SDS011;42558;52.388;13.390;2023-08-01T12:52:06;8.93;;;4.75;;
56680;SDS011;42558;52.388;13.390;2023-08-01T12:54:36;9.69;;;4.94;;
56680;SDS011;42558;52.388;13.390;2023-08-01T12:57:06;11.40;;;4.94;;
56680;SDS011;42558;52.388;13.390;2023-08-01T12:59:36;11.78;;;5.70;;
56680;SDS011;42558;52.388;13.390;2023-08-01T13:02:06;8.74;;;4.75;;
56680;SDS011;42558;52.388;13.390;2023-08-01T13:04:37;9.31;;;4.94;;
56680;SDS011;42558;52.388;13.390;2023-08-01T13:07:07;12.54;;;5.32;;
56680;SDS011;42558;52.388;13.390;2023-08-01T13:09:37;9.31;;;4.94;;
56680;SDS011;42558;52.388;13.390;2023-08-01T13:12:07;8.17;;;4.94;;
56680;SDS011;42558;52.388;13.390;2023-08-01T13:14:37;11.21;;;5.13;;
56680;SDS011;42558;52.388;13.390;2023-08-01T13:17:07;11.21;;;4.94;;
56680;SDS011;42558;52.388;13.390;2023-08-01T13:19:36;11.78;;;5.13;;
56680;SDS011;42558;52.388;13.390;2023-08-01T13:22:06;10.07;;;4.75;;
56680;SDS011;42558;52.388;13.390;2023-08-01T13:24:36;10.45;;;5.70;;
56680;SDS011;42558;52.388;13.390;2023-08-01T13:27:06;11.21;;;6.08;;
56680;SDS011;42558;52.388;13.390;2023-08-01T13:29:38;15.01;;;5.13;;
56680;SDS011;42558;52.388;13.390;2023-08-01T13:32:08;12.73;;;6.27;;
56680;SDS011;42558;52.388;13.390;2023-08-01T13:34:37;9.12;;;5.51;;
56680;SDS011;42558;52.388;13.390;2023-08-01T13:37:05;10.64;;;4.94;;
56680;SDS011;42558;52.388;13.390;2023-08-01T13:39:33;8.36;;;4.94;;
56680;SDS011;42558;52.388;13.390;2023-08-01T13:42:02;10.07;;;4.94;;
56680;SDS011;42558;52.388;13.390;2023-08-01T13:44:30;10.64;;;5.32;;
56680;SDS011;42558;52.388;13.390;2023-08-01T13:46:59;10.26;;;4.94;;
56680;SDS011;42558;52.388;13.390;2023-08-01T13:49:27;12.35;;;5.70;;
56680;SDS011;42558;52.388;13.390;2023-08-01T13:51:56;9.69;;;5.32;;
56680;SDS011;42558;52.388;13.390;2023-08-01T13:54:24;9.88;;;5.13;;
56680;SDS011;42558;52.388;13.390;2023-08-01T13:56:52;9.69;;;4.56;;
56680;SDS011;42558;52.388;13.390;2023-08-01T13:59:24;12.54;;;6.08;;
56680;SDS011;42558;52.388;13.390;2023-08-01T14:01:52;10.64;;;5.32;;
56680;SDS011;42558;52.388;13.390;2023-08-01T14:04:21;11.59;;;5.13;;
56680;SDS011;42558;52.388;13.390;2023-08-01T14:06:49;10.26;;;5.13;;
56680;SDS011;42558;52.388;13.390;2023-08-01T14:09:18;11.97;;;4.94;;
56680;SDS011;42558;52.388;13.390;2023-08-01T14:11:46;9.88;;;4.94;;
56680;SDS011;42558;52.388;13.390;2023-08-01T14:14:14;10.64;;;5.13;;
56680;SDS011;42558;52.388;13.390;2023-08-01T14:16:46;7.79;;;4.37;;
56680;SDS011;42558;52.388;13.390;2023-08-01T14:19:14;8.36;;;4.56;;
56680;SDS011;42558;52.388;13.390;2023-08-01T14:21:43;8.17;;;4.37;;
56680;SDS011;42558;52.388;13.390;2023-08-01T14:24:11;9.31;;;4.75;;
56680;SDS011;42558;52.388;13.390;2023-08-01T14:26:40;8.36;;;4.18;;
56680;SDS011;42558;52.388;13.390;2023-08-01T14:29:11;7.60;;;4.56;;
56680;SDS011;42558;52.388;13.390;2023-08-01T14:31:41;10.07;;;5.32;;
56680;SDS011;42558;52.388;13.390;2023-08-01T14:34:11;9.31;;;4.75;;
56680;SDS011;42558;52.388;13.390;2023-08-01T14:36:41;9.88;;;4.56;;
56680;SDS011;42558;52.388;13.390;2023-08-01T14:39:13;8.17;;;5.13;;
56680;SDS011;42558;52.388;13.390;2023-08-01T14:41:51;8.55;;;4.56;;
56680;SDS011;42558;52.388;13.390;2023-08-01T14:44:24;10.45;;;4.18;;
56680;SDS011;42558;52.388;13.390;2023-08-01T14:46:54;7.60;;;3.99;;
56680;SDS011;42558;52.388;13.390;2023-08-01T14:49:24;9.50;;;4.56;;
56680;SDS011;42558;52.388;13.390;2023-08-01T14:51:57;10.64;;;4.56;;